sensor_id;sensor_type;location;lat;lon;timestamp;P1;durP1;ratioP1;P2;durP2;ratioP2
70532;SDS011;58088;51.186;17.130;2023-03-01T00:01:54;179.70;;;45.20;;
70532;SDS011;58088;51.186;17.130;2023-03-01T00:04:20;171.30;;;44.10;;
70532;SDS011;58088;51.186;17.130;2023-03-01T00:06:47;146.90;;;40.50;;
70532;SDS011;58088;51.186;17.130;2023-03-01T00:09:14;132.60;;;36.40;;
70532;SDS011;58088;51.186;17.130;2023-03-01T00:11:42;115.20;;;35.30;;
70532;SDS011;58088;51.186;17.130;2023-03-01T00:14:08;126.30;;;37.00;;
70532;SDS011;58088;51.186;17.130;2023-03-01T00:16:40;110.10;;;33.00;;
70532;SDS011;58088;51.186;17.130;2023-03-01T00:19:11;113.50;;;33.30;;
70532;SDS011;58088;51.186;17.130;2023-03-01T00:21:39;145.30;;;41.40;;
70532;SDS011;58088;51.186;17.130;2023-03-01T00:24:07;129.10;;;37.50;;
70532;SDS011;58088;51.186;17.130;2023-03-01T00:26:34;148.20;;;41.20;;
70532;SDS011;58088;51.186;17.130;2023-03-01T00:29:00;156.70;;;40.60;;
70532;SDS011;58088;51.186;17.130;2023-03-01T00:31:30;129.80;;;37.10;;
70532;SDS011;58088;51.186;17.130;2023-03-01T00:34:03;150.60;;;41.50;;
70532;SDS011;58088;51.186;17.130;2023-03-01T00:36:34;139.40;;;36.80;;
70532;SDS011;58088;51.186;17.130;2023-03-01T00:39:04;132.50;;;36.60;;
70532;SDS011;58088;51.186;17.130;2023-03-01T00:41:31;141.50;;;38.30;;
70532;SDS011;58088;51.186;17.130;2023-03-01T00:43:59;131.60;;;35.20;;
70532;SDS011;58088;51.186;17.130;2023-03-01T00:46:26;115.20;;;35.20;;
70532;SDS011;58088;51.186;17.130;2023-03-01T00:48:53;90.70;;;28.40;;
70532;SDS011;58088;51.186;17.130;2023-03-01T00:51:23;98.50;;;30.80;;
70532;SDS011;58088;51.186;17.130;2023-03-01T00:53:53;95.50;;;30.50;;
70532;SDS011;58088;51.186;17.130;2023-03-01T00:56:21;96.40;;;30.00;;
70532;SDS011;58088;51.186;17.130;2023-03-01T00:58:48;107.00;;;33.00;;
70532;SDS011;58088;51.186;17.130;2023-03-01T01:01:21;105.40;;;32.30;;
70532;SDS011;58088;51.186;17.130;2023-03-01T01:03:52;100.70;;;32.40;;
70532;SDS011;58088;51.186;17.130;2023-03-01T01:06:28;95.90;;;31.50;;
70532;SDS011;58088;51.186;17.130;2023-03-01T01:08:56;106.80;;;32.70;;
70532;SDS011;58088;51.186;17.130;2023-03-01T01:11:25;92.30;;;31.10;;
70532;SDS011;58088;51.186;17.130;2023-03-01T01:13:55;95.00;;;31.10;;
70532;SDS011;58088;51.186;17.130;2023-03-01T01:16:24;90.80;;;31.40;;
70532;SDS011;58088;51.186;17.130;2023-03-01T01:18:52;88.70;;;30.30;;
70532;SDS011;58088;51.186;17.130;2023-03-01T01:21:22;92.20;;;29.50;;
70532;SDS011;58088;51.186;17.130;2023-03-01T01:23:50;96.60;;;32.90;;
70532;SDS011;58088;51.186;17.130;2023-03-01T01:26:21;98.90;;;31.60;;
70532;SDS011;58088;51.186;17.130;2023-03-01T01:28:50;85.70;;;29.60;;
70532;SDS011;58088;51.186;17.130;2023-03-01T01:31:18;83.70;;;29.60;;
70532;SDS011;58088;51.186;17.130;2023-03-01T01:33:45;97.70;;;31.00;;
70532;SDS011;58088;51.186;17.130;2023-03-01T01:36:12;96.30;;;32.40;;
70532;SDS011;58088;51.186;17.130;2023-03-01T01:38:39;92.80;;;29.80;;
70532;SDS011;58088;51.186;17.130;2023-03-01T01:41:07;93.90;;;30.80;;
70532;SDS011;58088;51.186;17.130;2023-03-01T01:46:39;87.50;;;29.40;;
70532;SDS011;58088;51.186;17.130;2023-03-01T01:51:57;97.10;;;30.60;;
70532;SDS011;58088;51.186;17.130;2023-03-01T01:54:55;88.50;;;30.70;;
70532;SDS011;58088;51.186;17.130;2023-03-01T01:57:48;80.60;;;29.30;;
70532;SDS011;58088;51.186;17.130;2023-03-01T02:00:21;80.80;;;26.30;;
70532;SDS011;58088;51.186;17.130;2023-03-01T02:03:10;95.80;;;31.30;;
70532;SDS011;58088;51.186;17.130;2023-03-01T02:08:20;139.60;;;42.10;;
70532;SDS011;58088;51.186;17.130;2023-03-01T02:10:49;139.30;;;42.50;;
70532;SDS011;58088;51.186;17.130;2023-03-01T02:13:17;115.10;;;36.90;;
70532;SDS011;58088;51.186;17.130;2023-03-01T02:15:44;109.20;;;34.60;;
70532;SDS011;58088;51.186;17.130;2023-03-01T02:18:12;88.30;;;29.40;;
70532;SDS011;58088;51.186;17.130;2023-03-01T02:20:50;91.20;;;31.20;;
70532;SDS011;58088;51.186;17.130;2023-03-01T02:23:36;100.30;;;32.60;;
70532;SDS011;58088;51.186;17.130;2023-03-01T02:26:29;94.30;;;32.20;;
70532;SDS011;58088;51.186;17.130;2023-03-01T02:29:02;99.80;;;32.20;;
70532;SDS011;58088;51.186;17.130;2023-03-01T02:31:31;95.80;;;34.10;;
70532;SDS011;58088;51.186;17.130;2023-03-01T02:34:09;104.80;;;34.30;;
70532;SDS011;58088;51.186;17.130;2023-03-01T02:36:41;103.60;;;33.00;;
70532;SDS011;58088;51.186;17.130;2023-03-01T02:39:17;101.10;;;35.60;;
70532;SDS011;58088;51.186;17.130;2023-03-01T02:41:50;97.40;;;32.90;;
70532;SDS011;58088;51.186;17.130;2023-03-01T02:44:18;72.90;;;24.40;;
70532;SDS011;58088;51.186;17.130;2023-03-01T02:46:51;65.50;;;23.60;;
70532;SDS011;58088;51.186;17.130;2023-03-01T02:49:26;60.50;;;20.50;;
70532;SDS011;58088;51.186;17.130;2023-03-01T02:57:55;71.40;;;25.90;;
70532;SDS011;58088;51.186;17.130;2023-03-01T03:00:25;78.40;;;28.00;;
70532;SDS011;58088;51.186;17.130;2023-03-01T03:02:55;66.50;;;25.40;;
70532;SDS011;58088;51.186;17.130;2023-03-01T03:05:29;71.80;;;26.20;;
70532;SDS011;58088;51.186;17.130;2023-03-01T03:07:58;72.40;;;25.80;;
70532;SDS011;58088;51.186;17.130;2023-03-01T03:10:31;72.60;;;26.80;;
70532;SDS011;58088;51.186;17.130;2023-03-01T03:13:04;61.60;;;23.70;;
70532;SDS011;58088;51.186;17.130;2023-03-01T03:15:33;69.00;;;25.70;;
70532;SDS011;58088;51.186;17.130;2023-03-01T03:18:03;66.20;;;24.10;;
70532;SDS011;58088;51.186;17.130;2023-03-01T03:20:32;76.10;;;26.30;;
70532;SDS011;58088;51.186;17.130;2023-03-01T03:22:59;69.60;;;24.80;;
70532;SDS011;58088;51.186;17.130;2023-03-01T03:25:28;71.20;;;25.10;;
70532;SDS011;58088;51.186;17.130;2023-03-01T03:27:55;72.20;;;25.10;;
70532;SDS011;58088;51.186;17.130;2023-03-01T03:30:26;65.40;;;24.50;;
70532;SDS011;58088;51.186;17.130;2023-03-01T03:32:55;75.30;;;25.90;;
70532;SDS011;58088;51.186;17.130;2023-03-01T03:35:30;73.20;;;25.30;;
70532;SDS011;58088;51.186;17.130;2023-03-01T03:38:00;64.60;;;22.50;;
70532;SDS011;58088;51.186;17.130;2023-03-01T03:40:36;66.20;;;22.10;;
70532;SDS011;58088;51.186;17.130;2023-03-01T03:43:08;52.70;;;19.10;;
70532;SDS011;58088;51.186;17.130;2023-03-01T03:45:36;60.80;;;22.20;;
70532;SDS011;58088;51.186;17.130;2023-03-01T03:48:04;58.40;;;22.20;;
70532;SDS011;58088;51.186;17.130;2023-03-01T03:50:33;61.40;;;23.60;;
70532;SDS011;58088;51.186;17.130;2023-03-01T03:53:00;61.20;;;21.20;;
70532;SDS011;58088;51.186;17.130;2023-03-01T03:55:27;63.90;;;23.90;;
70532;SDS011;58088;51.186;17.130;2023-03-01T03:58:02;64.90;;;23.80;;
70532;SDS011;58088;51.186;17.130;2023-03-01T04:00:34;65.40;;;23.80;;
70532;SDS011;58088;51.186;17.130;2023-03-01T04:03:02;63.00;;;23.10;;
70532;SDS011;58088;51.186;17.130;2023-03-01T04:05:29;62.20;;;23.30;;
70532;SDS011;58088;51.186;17.130;2023-03-01T04:07:57;63.30;;;22.60;;
70532;SDS011;58088;51.186;17.130;2023-03-01T04:10:38;70.20;;;25.30;;
70532;SDS011;58088;51.186;17.130;2023-03-01T04:13:12;79.10;;;28.60;;
70532;SDS011;58088;51.186;17.130;2023-03-01T04:15:39;87.70;;;30.90;;
70532;SDS011;58088;51.186;17.130;2023-03-01T04:18:06;81.80;;;28.30;;
70532;SDS011;58088;51.186;17.130;2023-03-01T04:20:35;66.60;;;24.30;;
70532;SDS011;58088;51.186;17.130;2023-03-01T04:23:07;76.00;;;26.70;;
70532;SDS011;58088;51.186;17.130;2023-03-01T04:25:45;71.80;;;25.00;;
70532;SDS011;58088;51.186;17.130;2023-03-01T04:28:34;71.00;;;24.20;;
70532;SDS011;58088;51.186;17.130;2023-03-01T04:31:13;67.20;;;24.40;;
70532;SDS011;58088;51.186;17.130;2023-03-01T04:33:54;67.50;;;24.80;;
70532;SDS011;58088;51.186;17.130;2023-03-01T04:36:24;69.00;;;25.30;;
70532;SDS011;58088;51.186;17.130;2023-03-01T04:38:53;56.60;;;21.00;;
70532;SDS011;58088;51.186;17.130;2023-03-01T04:41:23;58.20;;;21.20;;
70532;SDS011;58088;51.186;17.130;2023-03-01T04:43:50;71.50;;;24.40;;
70532;SDS011;58088;51.186;17.130;2023-03-01T04:46:18;61.50;;;23.70;;
70532;SDS011;58088;51.186;17.130;2023-03-01T04:48:46;67.90;;;24.20;;
70532;SDS011;58088;51.186;17.130;2023-03-01T04:51:13;61.90;;;23.30;;
70532;SDS011;58088;51.186;17.130;2023-03-01T04:53:40;59.60;;;21.60;;
70532;SDS011;58088;51.186;17.130;2023-03-01T04:56:07;56.10;;;22.00;;
70532;SDS011;58088;51.186;17.130;2023-03-01T04:58:34;70.70;;;23.70;;
70532;SDS011;58088;51.186;17.130;2023-03-01T05:01:00;71.30;;;24.90;;
70532;SDS011;58088;51.186;17.130;2023-03-01T05:03:26;72.00;;;25.90;;
70532;SDS011;58088;51.186;17.130;2023-03-01T05:05:54;65.60;;;24.70;;
70532;SDS011;58088;51.186;17.130;2023-03-01T05:08:25;63.60;;;23.50;;
70532;SDS011;58088;51.186;17.130;2023-03-01T05:10:52;61.40;;;23.00;;
70532;SDS011;58088;51.186;17.130;2023-03-01T05:13:20;59.10;;;23.30;;
70532;SDS011;58088;51.186;17.130;2023-03-01T05:15:59;60.50;;;21.60;;
70532;SDS011;58088;51.186;17.130;2023-03-01T05:18:27;59.10;;;21.70;;
70532;SDS011;58088;51.186;17.130;2023-03-01T05:21:11;58.60;;;18.10;;
70532;SDS011;58088;51.186;17.130;2023-03-01T05:23:41;60.10;;;21.90;;
70532;SDS011;58088;51.186;17.130;2023-03-01T05:26:08;91.80;;;30.60;;
70532;SDS011;58088;51.186;17.130;2023-03-01T05:28:35;91.60;;;30.00;;
70532;SDS011;58088;51.186;17.130;2023-03-01T05:31:02;84.50;;;27.90;;
70532;SDS011;58088;51.186;17.130;2023-03-01T05:33:28;60.00;;;20.40;;
70532;SDS011;58088;51.186;17.130;2023-03-01T05:35:54;64.40;;;24.00;;
70532;SDS011;58088;51.186;17.130;2023-03-01T05:38:25;56.80;;;20.70;;
70532;SDS011;58088;51.186;17.130;2023-03-01T05:40:51;65.70;;;21.00;;
70532;SDS011;58088;51.186;17.130;2023-03-01T05:43:17;69.50;;;24.40;;
70532;SDS011;58088;51.186;17.130;2023-03-01T05:45:44;72.60;;;25.80;;
70532;SDS011;58088;51.186;17.130;2023-03-01T05:48:12;63.90;;;23.00;;
70532;SDS011;58088;51.186;17.130;2023-03-01T05:50:44;70.40;;;26.00;;
70532;SDS011;58088;51.186;17.130;2023-03-01T05:53:13;75.80;;;26.30;;
70532;SDS011;58088;51.186;17.130;2023-03-01T05:55:45;68.30;;;24.40;;
70532;SDS011;58088;51.186;17.130;2023-03-01T05:58:15;65.70;;;23.30;;
70532;SDS011;58088;51.186;17.130;2023-03-01T06:00:44;65.20;;;22.70;;
70532;SDS011;58088;51.186;17.130;2023-03-01T06:03:15;62.40;;;23.10;;
70532;SDS011;58088;51.186;17.130;2023-03-01T06:05:43;60.10;;;21.70;;
70532;SDS011;58088;51.186;17.130;2023-03-01T06:08:11;55.00;;;21.30;;
70532;SDS011;58088;51.186;17.130;2023-03-01T06:10:38;54.00;;;20.40;;
70532;SDS011;58088;51.186;17.130;2023-03-01T06:13:04;57.50;;;21.20;;
70532;SDS011;58088;51.186;17.130;2023-03-01T06:15:30;47.30;;;17.60;;
70532;SDS011;58088;51.186;17.130;2023-03-01T06:17:57;64.20;;;22.20;;
70532;SDS011;58088;51.186;17.130;2023-03-01T06:20:25;50.20;;;17.80;;
70532;SDS011;58088;51.186;17.130;2023-03-01T06:22:53;55.70;;;20.90;;
70532;SDS011;58088;51.186;17.130;2023-03-01T06:25:22;57.50;;;21.20;;
70532;SDS011;58088;51.186;17.130;2023-03-01T06:27:50;54.40;;;20.30;;
70532;SDS011;58088;51.186;17.130;2023-03-01T06:30:19;49.40;;;20.70;;
70532;SDS011;58088;51.186;17.130;2023-03-01T06:32:47;53.80;;;20.80;;
70532;SDS011;58088;51.186;17.130;2023-03-01T06:35:16;44.40;;;18.00;;
70532;SDS011;58088;51.186;17.130;2023-03-01T06:37:45;41.10;;;17.00;;
70532;SDS011;58088;51.186;17.130;2023-03-01T06:40:13;39.00;;;16.70;;
70532;SDS011;58088;51.186;17.130;2023-03-01T06:42:41;40.10;;;17.40;;
70532;SDS011;58088;51.186;17.130;2023-03-01T06:45:10;39.40;;;15.90;;
70532;SDS011;58088;51.186;17.130;2023-03-01T06:47:37;35.00;;;13.90;;
70532;SDS011;58088;51.186;17.130;2023-03-01T06:50:03;40.70;;;16.20;;
70532;SDS011;58088;51.186;17.130;2023-03-01T06:52:30;55.10;;;22.60;;
70532;SDS011;58088;51.186;17.130;2023-03-01T06:54:57;54.70;;;23.70;;
70532;SDS011;58088;51.186;17.130;2023-03-01T06:57:23;57.40;;;23.40;;
70532;SDS011;58088;51.186;17.130;2023-03-01T06:59:50;65.10;;;26.20;;
70532;SDS011;58088;51.186;17.130;2023-03-01T07:02:16;68.50;;;28.10;;
70532;SDS011;58088;51.186;17.130;2023-03-01T07:04:43;56.50;;;21.80;;
70532;SDS011;58088;51.186;17.130;2023-03-01T07:07:11;118.80;;;35.80;;
70532;SDS011;58088;51.186;17.130;2023-03-01T07:09:37;125.10;;;36.60;;
70532;SDS011;58088;51.186;17.130;2023-03-01T07:12:03;89.50;;;29.60;;
70532;SDS011;58088;51.186;17.130;2023-03-01T07:14:30;80.50;;;29.00;;
70532;SDS011;58088;51.186;17.130;2023-03-01T07:16:56;77.00;;;26.00;;
70532;SDS011;58088;51.186;17.130;2023-03-01T07:19:23;54.10;;;21.60;;
70532;SDS011;58088;51.186;17.130;2023-03-01T07:21:49;60.30;;;23.60;;
70532;SDS011;58088;51.186;17.130;2023-03-01T07:24:15;60.70;;;24.80;;
70532;SDS011;58088;51.186;17.130;2023-03-01T07:26:42;62.40;;;27.40;;
70532;SDS011;58088;51.186;17.130;2023-03-01T07:29:10;50.90;;;23.40;;
70532;SDS011;58088;51.186;17.130;2023-03-01T07:31:36;66.60;;;29.30;;
70532;SDS011;58088;51.186;17.130;2023-03-01T07:34:02;73.10;;;29.60;;
70532;SDS011;58088;51.186;17.130;2023-03-01T07:36:29;72.90;;;29.60;;
70532;SDS011;58088;51.186;17.130;2023-03-01T07:38:56;62.30;;;25.50;;
70532;SDS011;58088;51.186;17.130;2023-03-01T07:41:24;60.90;;;26.10;;
70532;SDS011;58088;51.186;17.130;2023-03-01T07:43:50;51.50;;;23.00;;
70532;SDS011;58088;51.186;17.130;2023-03-01T07:46:17;51.80;;;22.70;;
70532;SDS011;58088;51.186;17.130;2023-03-01T07:48:44;63.80;;;27.00;;
70532;SDS011;58088;51.186;17.130;2023-03-01T07:51:11;53.50;;;24.80;;
70532;SDS011;58088;51.186;17.130;2023-03-01T07:53:37;57.20;;;25.40;;
70532;SDS011;58088;51.186;17.130;2023-03-01T07:56:14;56.30;;;24.90;;
70532;SDS011;58088;51.186;17.130;2023-03-01T07:58:44;54.60;;;23.30;;
70532;SDS011;58088;51.186;17.130;2023-03-01T08:01:13;59.60;;;25.60;;
70532;SDS011;58088;51.186;17.130;2023-03-01T08:03:41;43.20;;;19.70;;
70532;SDS011;58088;51.186;17.130;2023-03-01T08:06:10;50.20;;;23.00;;
70532;SDS011;58088;51.186;17.130;2023-03-01T08:08:38;48.80;;;22.00;;
70532;SDS011;58088;51.186;17.130;2023-03-01T08:11:06;47.10;;;20.70;;
70532;SDS011;58088;51.186;17.130;2023-03-01T08:13:33;46.60;;;21.80;;
70532;SDS011;58088;51.186;17.130;2023-03-01T08:16:04;51.10;;;22.50;;
70532;SDS011;58088;51.186;17.130;2023-03-01T08:18:36;61.30;;;25.40;;
70532;SDS011;58088;51.186;17.130;2023-03-01T08:21:10;53.40;;;24.50;;
70532;SDS011;58088;51.186;17.130;2023-03-01T08:23:39;51.90;;;23.70;;
70532;SDS011;58088;51.186;17.130;2023-03-01T08:26:09;43.60;;;20.70;;
70532;SDS011;58088;51.186;17.130;2023-03-01T08:28:38;59.60;;;26.50;;
70532;SDS011;58088;51.186;17.130;2023-03-01T08:31:22;52.00;;;24.10;;
70532;SDS011;58088;51.186;17.130;2023-03-01T08:33:56;49.70;;;21.40;;
70532;SDS011;58088;51.186;17.130;2023-03-01T08:36:27;37.80;;;18.20;;
70532;SDS011;58088;51.186;17.130;2023-03-01T08:38:56;41.80;;;19.10;;
70532;SDS011;58088;51.186;17.130;2023-03-01T08:41:23;46.00;;;21.70;;
70532;SDS011;58088;51.186;17.130;2023-03-01T08:43:50;47.70;;;22.40;;
70532;SDS011;58088;51.186;17.130;2023-03-01T08:46:18;42.80;;;20.70;;
70532;SDS011;58088;51.186;17.130;2023-03-01T08:48:44;41.10;;;19.20;;
70532;SDS011;58088;51.186;17.130;2023-03-01T08:51:14;45.00;;;19.40;;
70532;SDS011;58088;51.186;17.130;2023-03-01T08:53:43;34.60;;;16.30;;
70532;SDS011;58088;51.186;17.130;2023-03-01T08:56:10;32.80;;;14.60;;
70532;SDS011;58088;51.186;17.130;2023-03-01T08:58:38;33.10;;;15.90;;
70532;SDS011;58088;51.186;17.130;2023-03-01T09:01:10;27.40;;;12.80;;
70532;SDS011;58088;51.186;17.130;2023-03-01T09:03:38;23.70;;;10.90;;
70532;SDS011;58088;51.186;17.130;2023-03-01T09:06:06;23.60;;;11.20;;
70532;SDS011;58088;51.186;17.130;2023-03-01T09:08:39;23.90;;;11.50;;
70532;SDS011;58088;51.186;17.130;2023-03-01T09:11:09;31.50;;;15.50;;
70532;SDS011;58088;51.186;17.130;2023-03-01T09:13:37;26.70;;;12.10;;
70532;SDS011;58088;51.186;17.130;2023-03-01T09:16:06;30.20;;;13.00;;
70532;SDS011;58088;51.186;17.130;2023-03-01T09:18:34;22.60;;;11.10;;
70532;SDS011;58088;51.186;17.130;2023-03-01T09:21:03;21.90;;;11.20;;
70532;SDS011;58088;51.186;17.130;2023-03-01T09:23:36;19.20;;;8.30;;
70532;SDS011;58088;51.186;17.130;2023-03-01T09:26:06;24.60;;;10.80;;
70532;SDS011;58088;51.186;17.130;2023-03-01T09:28:35;19.80;;;10.30;;
70532;SDS011;58088;51.186;17.130;2023-03-01T09:31:03;25.10;;;11.40;;
70532;SDS011;58088;51.186;17.130;2023-03-01T09:33:32;23.00;;;10.70;;
70532;SDS011;58088;51.186;17.130;2023-03-01T09:36:00;23.90;;;10.30;;
70532;SDS011;58088;51.186;17.130;2023-03-01T09:38:28;23.80;;;10.70;;
70532;SDS011;58088;51.186;17.130;2023-03-01T09:40:55;31.30;;;13.80;;
70532;SDS011;58088;51.186;17.130;2023-03-01T09:46:04;29.60;;;13.50;;
70532;SDS011;58088;51.186;17.130;2023-03-01T09:48:42;31.60;;;14.30;;
70532;SDS011;58088;51.186;17.130;2023-03-01T09:51:17;21.50;;;10.50;;
70532;SDS011;58088;51.186;17.130;2023-03-01T09:53:47;29.30;;;13.60;;
70532;SDS011;58088;51.186;17.130;2023-03-01T09:56:41;25.40;;;11.50;;
70532;SDS011;58088;51.186;17.130;2023-03-01T09:59:26;24.10;;;10.90;;
70532;SDS011;58088;51.186;17.130;2023-03-01T10:02:14;33.60;;;16.70;;
70532;SDS011;58088;51.186;17.130;2023-03-01T10:05:31;28.70;;;13.90;;
70532;SDS011;58088;51.186;17.130;2023-03-01T10:08:28;27.20;;;12.50;;
70532;SDS011;58088;51.186;17.130;2023-03-01T10:11:03;33.20;;;15.70;;
70532;SDS011;58088;51.186;17.130;2023-03-01T10:14:03;29.00;;;13.60;;
70532;SDS011;58088;51.186;17.130;2023-03-01T10:17:05;24.50;;;11.30;;
70532;SDS011;58088;51.186;17.130;2023-03-01T10:19:41;27.50;;;12.70;;
70532;SDS011;58088;51.186;17.130;2023-03-01T10:22:26;25.90;;;12.60;;
70532;SDS011;58088;51.186;17.130;2023-03-01T10:24:56;24.50;;;11.80;;
70532;SDS011;58088;51.186;17.130;2023-03-01T10:27:29;23.50;;;11.50;;
70532;SDS011;58088;51.186;17.130;2023-03-01T10:30:39;21.40;;;11.10;;
70532;SDS011;58088;51.186;17.130;2023-03-01T10:33:19;24.10;;;11.20;;
70532;SDS011;58088;51.186;17.130;2023-03-01T10:35:50;28.00;;;13.00;;
70532;SDS011;58088;51.186;17.130;2023-03-01T10:38:17;30.80;;;13.80;;
70532;SDS011;58088;51.186;17.130;2023-03-01T10:41:00;34.30;;;15.30;;
70532;SDS011;58088;51.186;17.130;2023-03-01T10:43:57;30.20;;;13.90;;
70532;SDS011;58088;51.186;17.130;2023-03-01T10:46:35;28.70;;;13.90;;
70532;SDS011;58088;51.186;17.130;2023-03-01T10:49:22;25.60;;;13.20;;
70532;SDS011;58088;51.186;17.130;2023-03-01T10:51:52;27.80;;;12.70;;
70532;SDS011;58088;51.186;17.130;2023-03-01T10:57:03;25.30;;;11.90;;
70532;SDS011;58088;51.186;17.130;2023-03-01T10:59:36;23.10;;;11.30;;
70532;SDS011;58088;51.186;17.130;2023-03-01T11:02:42;22.90;;;11.40;;
70532;SDS011;58088;51.186;17.130;2023-03-01T11:05:23;23.70;;;10.00;;
70532;SDS011;58088;51.186;17.130;2023-03-01T11:07:52;18.50;;;9.60;;
70532;SDS011;58088;51.186;17.130;2023-03-01T11:10:24;16.00;;;8.30;;
70532;SDS011;58088;51.186;17.130;2023-03-01T11:13:16;15.60;;;7.30;;
70532;SDS011;58088;51.186;17.130;2023-03-01T11:16:09;18.10;;;8.90;;
70532;SDS011;58088;51.186;17.130;2023-03-01T11:18:38;21.70;;;9.90;;
70532;SDS011;58088;51.186;17.130;2023-03-01T11:21:06;15.90;;;7.20;;
70532;SDS011;58088;51.186;17.130;2023-03-01T11:23:36;21.00;;;10.20;;
70532;SDS011;58088;51.186;17.130;2023-03-01T11:26:07;18.40;;;8.20;;
70532;SDS011;58088;51.186;17.130;2023-03-01T11:28:37;15.10;;;7.20;;
70532;SDS011;58088;51.186;17.130;2023-03-01T11:31:10;16.10;;;8.20;;
70532;SDS011;58088;51.186;17.130;2023-03-01T11:33:57;15.80;;;7.70;;
70532;SDS011;58088;51.186;17.130;2023-03-01T11:36:52;16.40;;;7.60;;
70532;SDS011;58088;51.186;17.130;2023-03-01T11:39:47;15.60;;;7.10;;
70532;SDS011;58088;51.186;17.130;2023-03-01T11:42:20;13.90;;;6.10;;
70532;SDS011;58088;51.186;17.130;2023-03-01T11:44:59;14.60;;;6.60;;
70532;SDS011;58088;51.186;17.130;2023-03-01T11:56:16;15.90;;;6.90;;
70532;SDS011;58088;51.186;17.130;2023-03-01T11:59:24;18.30;;;7.80;;
70532;SDS011;58088;51.186;17.130;2023-03-01T12:05:38;15.50;;;6.90;;
70532;SDS011;58088;51.186;17.130;2023-03-01T12:08:18;21.80;;;9.70;;
70532;SDS011;58088;51.186;17.130;2023-03-01T12:11:39;17.50;;;7.90;;
70532;SDS011;58088;51.186;17.130;2023-03-01T12:19:15;17.00;;;8.20;;
70532;SDS011;58088;51.186;17.130;2023-03-01T12:22:20;20.90;;;8.90;;
70532;SDS011;58088;51.186;17.130;2023-03-01T12:28:08;20.30;;;9.70;;
70532;SDS011;58088;51.186;17.130;2023-03-01T12:49:08;21.10;;;10.00;;
70532;SDS011;58088;51.186;17.130;2023-03-01T12:52:09;22.30;;;10.10;;
70532;SDS011;58088;51.186;17.130;2023-03-01T12:54:43;21.20;;;10.20;;
70532;SDS011;58088;51.186;17.130;2023-03-01T12:57:48;19.40;;;9.90;;
70532;SDS011;58088;51.186;17.130;2023-03-01T13:07:00;17.70;;;7.50;;
70532;SDS011;58088;51.186;17.130;2023-03-01T13:18:26;17.90;;;8.80;;
70532;SDS011;58088;51.186;17.130;2023-03-01T13:26:10;19.80;;;9.20;;
70532;SDS011;58088;51.186;17.130;2023-03-01T13:33:51;19.40;;;9.00;;
70532;SDS011;58088;51.186;17.130;2023-03-01T13:44:34;21.40;;;9.90;;
70532;SDS011;58088;51.186;17.130;2023-03-01T13:50:00;24.10;;;10.40;;
70532;SDS011;58088;51.186;17.130;2023-03-01T13:52:40;26.90;;;11.60;;
70532;SDS011;58088;51.186;17.130;2023-03-01T13:57:49;19.90;;;8.80;;
70532;SDS011;58088;51.186;17.130;2023-03-01T14:00:38;19.00;;;8.50;;
70532;SDS011;58088;51.186;17.130;2023-03-01T14:03:10;22.50;;;11.10;;
70532;SDS011;58088;51.186;17.130;2023-03-01T14:08:36;21.70;;;9.80;;
70532;SDS011;58088;51.186;17.130;2023-03-01T14:20:25;19.40;;;9.40;;
70532;SDS011;58088;51.186;17.130;2023-03-01T14:22:59;21.40;;;10.10;;
70532;SDS011;58088;51.186;17.130;2023-03-01T14:25:32;21.30;;;10.30;;
70532;SDS011;58088;51.186;17.130;2023-03-01T14:28:24;19.90;;;10.20;;
70532;SDS011;58088;51.186;17.130;2023-03-01T14:30:55;20.90;;;9.20;;
70532;SDS011;58088;51.186;17.130;2023-03-01T14:33:27;21.60;;;9.90;;
70532;SDS011;58088;51.186;17.130;2023-03-01T14:36:03;21.50;;;10.60;;
70532;SDS011;58088;51.186;17.130;2023-03-01T14:38:41;17.10;;;9.00;;
70532;SDS011;58088;51.186;17.130;2023-03-01T14:41:14;16.60;;;8.30;;
70532;SDS011;58088;51.186;17.130;2023-03-01T14:43:46;21.00;;;10.10;;
70532;SDS011;58088;51.186;17.130;2023-03-01T14:46:25;21.60;;;9.40;;
70532;SDS011;58088;51.186;17.130;2023-03-01T14:49:01;19.00;;;9.10;;
70532;SDS011;58088;51.186;17.130;2023-03-01T14:51:40;21.10;;;10.10;;
70532;SDS011;58088;51.186;17.130;2023-03-01T14:57:19;18.30;;;9.30;;
70532;SDS011;58088;51.186;17.130;2023-03-01T14:59:55;25.00;;;11.70;;
70532;SDS011;58088;51.186;17.130;2023-03-01T15:02:27;22.80;;;11.10;;
70532;SDS011;58088;51.186;17.130;2023-03-01T15:04:56;25.80;;;11.30;;
70532;SDS011;58088;51.186;17.130;2023-03-01T15:07:34;20.00;;;9.10;;
70532;SDS011;58088;51.186;17.130;2023-03-01T15:10:05;21.30;;;9.80;;
70532;SDS011;58088;51.186;17.130;2023-03-01T15:12:41;19.40;;;9.40;;
70532;SDS011;58088;51.186;17.130;2023-03-01T15:15:26;20.40;;;9.40;;
70532;SDS011;58088;51.186;17.130;2023-03-01T15:18:18;21.00;;;9.30;;
70532;SDS011;58088;51.186;17.130;2023-03-01T15:20:49;22.20;;;9.80;;
70532;SDS011;58088;51.186;17.130;2023-03-01T15:23:36;24.60;;;11.50;;
70532;SDS011;58088;51.186;17.130;2023-03-01T15:26:05;20.50;;;9.90;;
70532;SDS011;58088;51.186;17.130;2023-03-01T15:28:39;21.80;;;10.30;;
70532;SDS011;58088;51.186;17.130;2023-03-01T15:31:22;21.70;;;10.20;;
70532;SDS011;58088;51.186;17.130;2023-03-01T15:34:19;24.40;;;10.70;;
70532;SDS011;58088;51.186;17.130;2023-03-01T15:36:51;24.10;;;11.40;;
70532;SDS011;58088;51.186;17.130;2023-03-01T15:39:42;26.70;;;12.50;;
70532;SDS011;58088;51.186;17.130;2023-03-01T15:47:54;25.30;;;12.10;;
70532;SDS011;58088;51.186;17.130;2023-03-01T15:50:34;25.60;;;12.10;;
70532;SDS011;58088;51.186;17.130;2023-03-01T15:53:12;23.50;;;11.40;;
70532;SDS011;58088;51.186;17.130;2023-03-01T15:55:41;25.70;;;12.30;;
70532;SDS011;58088;51.186;17.130;2023-03-01T15:58:20;28.70;;;13.20;;
70532;SDS011;58088;51.186;17.130;2023-03-01T16:00:48;25.40;;;11.90;;
70532;SDS011;58088;51.186;17.130;2023-03-01T16:03:22;25.40;;;12.20;;
70532;SDS011;58088;51.186;17.130;2023-03-01T16:05:49;26.30;;;12.10;;
70532;SDS011;58088;51.186;17.130;2023-03-01T16:08:17;28.90;;;13.10;;
70532;SDS011;58088;51.186;17.130;2023-03-01T16:10:45;29.10;;;13.50;;
70532;SDS011;58088;51.186;17.130;2023-03-01T16:13:14;26.50;;;12.60;;
70532;SDS011;58088;51.186;17.130;2023-03-01T16:15:40;27.90;;;12.70;;
70532;SDS011;58088;51.186;17.130;2023-03-01T16:18:07;24.80;;;11.50;;
70532;SDS011;58088;51.186;17.130;2023-03-01T16:20:36;24.00;;;11.30;;
70532;SDS011;58088;51.186;17.130;2023-03-01T16:23:06;32.90;;;14.00;;
70532;SDS011;58088;51.186;17.130;2023-03-01T16:25:35;33.10;;;14.30;;
70532;SDS011;58088;51.186;17.130;2023-03-01T16:28:02;36.90;;;17.00;;
70532;SDS011;58088;51.186;17.130;2023-03-01T16:30:34;49.40;;;21.20;;
70532;SDS011;58088;51.186;17.130;2023-03-01T16:33:02;47.70;;;22.80;;
70532;SDS011;58088;51.186;17.130;2023-03-01T16:35:32;46.40;;;21.00;;
70532;SDS011;58088;51.186;17.130;2023-03-01T16:38:00;40.10;;;18.30;;
70532;SDS011;58088;51.186;17.130;2023-03-01T16:40:28;41.60;;;19.50;;